Timiskaming Regional Airport
CYXR : now visible

Airfield :











YOU CAN JOIN US ON...

 
LOGIN :

Register | Disclaimer

   EN    FR    IT 

 









Legend :    VFR   Marginal VFR   IFR   Intensive IFR   Very Intensive IFR
Visi :
Ceiling :
>= 8 km
>= 3000ft
5 to 8 km
1000 to 3000 ft
1500m to 5 km
500 to 1000 ft
800 to 1500m
200 to 500 ft
< 800m
< 200 ft
Symbols :   Thunderstorms  Fog  Heavy snow  Heavy precipitations  Wind > 20 kt






- Airport Elevation : 798 ft
- IATA code : YXR


CYXR - Timiskaming Regional

METAR N/A
TAF TAF CYXR
Valid from the 14 at 13:00 until the 15 at 01:00 UTC


141239Z 1413/1501 15008KT P6SM -SN SCT030 OVC060
TEMPO 1413/1417 5SM -SN BKN030 OVC060
BECMG 1413/1415 18010G20KT
FM141700 24010G20KT P6SM BKN030
FM142200 22012G22KT 4SM -SN OVC020 RMK FCST BASED ON AUTO OBS. NXT FCST BY 141800Z



MET'MAP, your aeronautical weather chart ! - Copyright ORBIFLY December 2007 - Disclaimer

ORBIFLY MET'MAP TEAM :

Programming & Development : Alexandra Zaïnal
Concept & Development : Baudouin d'Aumeries
Co-Development & Prog : Marc-Olivier Méhu
Technical & hardware support : Manuel Goepfert

Contact : metmap@orbifly.com




SOURCES & CREDITS :

   NOAA       Earth
Advisory